sensor_id;sensor_type;location;lat;lon;timestamp;pressure;altitude;pressure_sealevel;temperature;humidity
77013;BME280;67260;53.130;17.982;2024-02-23T00:00:21;98609.15;;;7.46;83.66
77013;BME280;67260;53.130;17.982;2024-02-23T00:26:12;98608.46;;;7.59;83.54
77013;BME280;67260;53.130;17.982;2024-02-23T00:35:57;98587.46;;;7.64;83.09
77013;BME280;67260;53.130;17.982;2024-02-23T00:38:51;98593.91;;;7.67;83.08
77013;BME280;67260;53.130;17.982;2024-02-23T00:49:31;98589.53;;;7.74;83.25
77013;BME280;67260;53.130;17.982;2024-02-23T01:08:49;98571.70;;;7.83;82.93
77013;BME280;67260;53.130;17.982;2024-02-23T01:12:18;98567.98;;;7.85;82.61
77013;BME280;67260;53.130;17.982;2024-02-23T01:15:00;98574.23;;;7.87;82.82
77013;BME280;67260;53.130;17.982;2024-02-23T01:44:40;98563.94;;;7.87;83.53
77013;BME280;67260;53.130;17.982;2024-02-23T01:47:56;98563.67;;;7.84;83.68
77013;BME280;67260;53.130;17.982;2024-02-23T01:51:00;98581.66;;;7.81;83.94
77013;BME280;67260;53.130;17.982;2024-02-23T02:16:23;98580.42;;;7.90;84.22
77013;BME280;67260;53.130;17.982;2024-02-23T02:19:08;98583.20;;;7.92;84.30
77013;BME280;67260;53.130;17.982;2024-02-23T02:22:34;98580.98;;;7.96;84.45
77013;BME280;67260;53.130;17.982;2024-02-23T02:25:40;98575.86;;;7.97;84.54
77013;BME280;67260;53.130;17.982;2024-02-23T02:28:13;98570.68;;;7.96;84.74
77013;BME280;67260;53.130;17.982;2024-02-23T02:38:34;98572.26;;;7.88;85.78
77013;BME280;67260;53.130;17.982;2024-02-23T02:41:04;98572.95;;;7.88;85.92
77013;BME280;67260;53.130;17.982;2024-02-23T02:51:29;98557.14;;;7.92;86.16
77013;BME280;67260;53.130;17.982;2024-02-23T02:54:05;98550.64;;;7.93;86.11
77013;BME280;67260;53.130;17.982;2024-02-23T02:57:15;98553.55;;;7.93;86.39
77013;BME280;67260;53.130;17.982;2024-02-23T02:59:58;98550.14;;;7.94;86.37
77013;BME280;67260;53.130;17.982;2024-02-23T03:06:55;98564.14;;;8.01;86.48
77013;BME280;67260;53.130;17.982;2024-02-23T03:09:37;98571.48;;;8.03;86.58
77013;BME280;67260;53.130;17.982;2024-02-23T03:22:26;98582.33;;;8.23;86.27
77013;BME280;67260;53.130;17.982;2024-02-23T03:25:54;98586.98;;;8.28;86.08
77013;BME280;67260;53.130;17.982;2024-02-23T03:29:03;98586.92;;;8.30;86.14
77013;BME280;67260;53.130;17.982;2024-02-23T03:39:53;98590.31;;;8.42;85.89
77013;BME280;67260;53.130;17.982;2024-02-23T03:42:38;98599.26;;;8.46;85.80
77013;BME280;67260;53.130;17.982;2024-02-23T03:45:19;98597.20;;;8.46;85.82
77013;BME280;67260;53.130;17.982;2024-02-23T03:52:08;98612.89;;;8.49;85.68
77013;BME280;67260;53.130;17.982;2024-02-23T03:59:13;98629.98;;;8.45;85.88
77013;BME280;67260;53.130;17.982;2024-02-23T04:01:56;98636.71;;;8.45;85.94
77013;BME280;67260;53.130;17.982;2024-02-23T04:08:25;98646.00;;;8.47;85.99
77013;BME280;67260;53.130;17.982;2024-02-23T04:11:00;98646.77;;;8.45;86.06
77013;BME280;67260;53.130;17.982;2024-02-23T04:13:29;98653.17;;;8.46;86.11
77013;BME280;67260;53.130;17.982;2024-02-23T04:15:55;98654.30;;;8.46;86.11
77013;BME280;67260;53.130;17.982;2024-02-23T04:18:24;98657.02;;;8.48;86.14
77013;BME280;67260;53.130;17.982;2024-02-23T04:20:54;98658.54;;;8.54;85.94
77013;BME280;67260;53.130;17.982;2024-02-23T04:23:20;98667.77;;;8.60;85.71
77013;BME280;67260;53.130;17.982;2024-02-23T04:26:12;98663.02;;;8.65;85.65
77013;BME280;67260;53.130;17.982;2024-02-23T04:28:42;98665.16;;;8.70;85.50
77013;BME280;67260;53.130;17.982;2024-02-23T04:31:15;98666.54;;;8.75;85.49
77013;BME280;67260;53.130;17.982;2024-02-23T04:33:42;98670.02;;;8.77;85.26
77013;BME280;67260;53.130;17.982;2024-02-23T04:36:09;98675.17;;;8.79;85.32
77013;BME280;67260;53.130;17.982;2024-02-23T04:38:35;98674.06;;;8.83;85.12
77013;BME280;67260;53.130;17.982;2024-02-23T04:41:05;98674.33;;;8.87;85.15
77013;BME280;67260;53.130;17.982;2024-02-23T04:43:31;98678.73;;;8.92;84.80
77013;BME280;67260;53.130;17.982;2024-02-23T04:46:00;98680.23;;;8.98;84.49
77013;BME280;67260;53.130;17.982;2024-02-23T04:48:26;98675.14;;;9.02;84.42
77013;BME280;67260;53.130;17.982;2024-02-23T04:50:52;98685.63;;;9.01;84.67
77013;BME280;67260;53.130;17.982;2024-02-23T04:53:26;98691.02;;;9.01;84.73
77013;BME280;67260;53.130;17.982;2024-02-23T04:55:57;98693.60;;;9.00;84.67
77013;BME280;67260;53.130;17.982;2024-02-23T04:58:28;98696.73;;;9.00;84.72
77013;BME280;67260;53.130;17.982;2024-02-23T05:00:57;98697.59;;;9.00;84.69
77013;BME280;67260;53.130;17.982;2024-02-23T05:03:24;98702.81;;;9.03;84.36
77013;BME280;67260;53.130;17.982;2024-02-23T05:05:51;98703.39;;;9.07;84.60
77013;BME280;67260;53.130;17.982;2024-02-23T05:08:22;98705.63;;;9.08;84.48
77013;BME280;67260;53.130;17.982;2024-02-23T05:10:50;98709.84;;;9.10;84.32
77013;BME280;67260;53.130;17.982;2024-02-23T05:13:16;98712.77;;;9.11;84.28
77013;BME280;67260;53.130;17.982;2024-02-23T05:15:42;98718.55;;;9.13;84.19
77013;BME280;67260;53.130;17.982;2024-02-23T05:18:08;98718.09;;;9.13;84.35
77013;BME280;67260;53.130;17.982;2024-02-23T05:20:35;98721.52;;;9.13;84.24
77013;BME280;67260;53.130;17.982;2024-02-23T05:23:01;98727.40;;;9.12;84.03
77013;BME280;67260;53.130;17.982;2024-02-23T05:25:27;98732.39;;;9.13;83.97
77013;BME280;67260;53.130;17.982;2024-02-23T05:27:53;98731.55;;;9.13;84.10
77013;BME280;67260;53.130;17.982;2024-02-23T05:30:26;98733.49;;;9.13;83.90
77013;BME280;67260;53.130;17.982;2024-02-23T05:32:57;98742.52;;;9.14;83.90
77013;BME280;67260;53.130;17.982;2024-02-23T05:35:27;98754.11;;;9.12;84.06
77013;BME280;67260;53.130;17.982;2024-02-23T05:37:53;98760.80;;;9.10;84.07
77013;BME280;67260;53.130;17.982;2024-02-23T05:40:19;98760.45;;;9.08;84.08
77013;BME280;67260;53.130;17.982;2024-02-23T05:42:48;98762.40;;;9.07;84.11
77013;BME280;67260;53.130;17.982;2024-02-23T05:45:14;98769.58;;;9.05;84.10
77013;BME280;67260;53.130;17.982;2024-02-23T05:47:44;98775.60;;;9.04;84.21
77013;BME280;67260;53.130;17.982;2024-02-23T05:50:14;98777.17;;;9.03;84.23
77013;BME280;67260;53.130;17.982;2024-02-23T05:52:41;98784.20;;;9.02;84.35
77013;BME280;67260;53.130;17.982;2024-02-23T05:55:07;98786.30;;;9.00;84.32
77013;BME280;67260;53.130;17.982;2024-02-23T05:57:33;98794.11;;;8.98;84.22
77013;BME280;67260;53.130;17.982;2024-02-23T05:59:59;98804.20;;;8.99;84.30
77013;BME280;67260;53.130;17.982;2024-02-23T06:02:26;98807.48;;;8.99;84.31
77013;BME280;67260;53.130;17.982;2024-02-23T06:04:53;98814.70;;;9.00;84.32
77013;BME280;67260;53.130;17.982;2024-02-23T06:07:19;98826.48;;;9.02;84.22
77013;BME280;67260;53.130;17.982;2024-02-23T06:09:57;98829.66;;;9.03;84.08
77013;BME280;67260;53.130;17.982;2024-02-23T06:12:24;98836.50;;;9.06;84.02
77013;BME280;67260;53.130;17.982;2024-02-23T06:14:51;98839.75;;;9.08;83.91
77013;BME280;67260;53.130;17.982;2024-02-23T06:17:17;98845.27;;;9.11;83.84
77013;BME280;67260;53.130;17.982;2024-02-23T06:19:44;98852.66;;;9.14;83.78
77013;BME280;67260;53.130;17.982;2024-02-23T06:22:10;98857.73;;;9.16;83.76
77013;BME280;67260;53.130;17.982;2024-02-23T06:24:41;98869.27;;;9.19;83.50
77013;BME280;67260;53.130;17.982;2024-02-23T06:27:07;98878.45;;;9.23;83.54
77013;BME280;67260;53.130;17.982;2024-02-23T06:29:40;98882.83;;;9.26;83.58
77013;BME280;67260;53.130;17.982;2024-02-23T06:32:06;98890.85;;;9.28;83.25
77013;BME280;67260;53.130;17.982;2024-02-23T06:34:32;98889.98;;;9.31;83.21
77013;BME280;67260;53.130;17.982;2024-02-23T06:37:10;98900.16;;;9.33;83.03
77013;BME280;67260;53.130;17.982;2024-02-23T06:39:43;98912.84;;;9.36;83.11
77013;BME280;67260;53.130;17.982;2024-02-23T06:42:13;98916.47;;;9.38;82.97
77013;BME280;67260;53.130;17.982;2024-02-23T06:44:40;98926.95;;;9.40;82.71
77013;BME280;67260;53.130;17.982;2024-02-23T06:47:06;98929.69;;;9.43;81.83
77013;BME280;67260;53.130;17.982;2024-02-23T06:49:57;98935.33;;;9.47;81.12
77013;BME280;67260;53.130;17.982;2024-02-23T06:52:25;98937.77;;;9.52;80.82
77013;BME280;67260;53.130;17.982;2024-02-23T06:54:52;98945.41;;;9.56;80.22
77013;BME280;67260;53.130;17.982;2024-02-23T06:57:26;98937.48;;;9.61;79.54
77013;BME280;67260;53.130;17.982;2024-02-23T06:59:56;98945.46;;;9.67;74.64
77013;BME280;67260;53.130;17.982;2024-02-23T07:02:23;98951.64;;;9.76;75.41
77013;BME280;67260;53.130;17.982;2024-02-23T07:04:49;98955.94;;;9.81;74.34
77013;BME280;67260;53.130;17.982;2024-02-23T07:07:16;98962.30;;;9.89;73.75
77013;BME280;67260;53.130;17.982;2024-02-23T07:09:42;98958.70;;;9.93;72.93
77013;BME280;67260;53.130;17.982;2024-02-23T07:12:16;98973.73;;;9.98;74.60
77013;BME280;67260;53.130;17.982;2024-02-23T07:14:42;98974.72;;;10.01;74.42
77013;BME280;67260;53.130;17.982;2024-02-23T07:17:09;98975.05;;;10.02;70.23
77013;BME280;67260;53.130;17.982;2024-02-23T07:19:36;98978.36;;;10.08;70.34
77013;BME280;67260;53.130;17.982;2024-02-23T07:22:04;98977.40;;;10.10;70.11
77013;BME280;67260;53.130;17.982;2024-02-23T07:24:42;98988.16;;;10.14;70.09
77013;BME280;67260;53.130;17.982;2024-02-23T07:27:40;98998.35;;;10.14;69.88
77013;BME280;67260;53.130;17.982;2024-02-23T07:30:06;99001.17;;;10.15;71.14
77013;BME280;67260;53.130;17.982;2024-02-23T07:32:33;99012.30;;;10.14;69.81
77013;BME280;67260;53.130;17.982;2024-02-23T07:34:59;99019.67;;;10.12;66.87
77013;BME280;67260;53.130;17.982;2024-02-23T07:37:26;99022.52;;;10.11;66.72
77013;BME280;67260;53.130;17.982;2024-02-23T07:40:18;99027.98;;;10.11;65.63
77013;BME280;67260;53.130;17.982;2024-02-23T07:42:47;99033.77;;;10.12;63.42
77013;BME280;67260;53.130;17.982;2024-02-23T07:45:13;99042.63;;;10.11;62.25
77013;BME280;67260;53.130;17.982;2024-02-23T07:47:40;99046.94;;;10.12;61.63
77013;BME280;67260;53.130;17.982;2024-02-23T07:50:06;99053.98;;;10.11;63.11
77013;BME280;67260;53.130;17.982;2024-02-23T07:52:33;99059.95;;;10.10;63.30
77013;BME280;67260;53.130;17.982;2024-02-23T07:55:03;99067.78;;;10.08;65.38
77013;BME280;67260;53.130;17.982;2024-02-23T07:57:36;99077.79;;;10.06;65.05
77013;BME280;67260;53.130;17.982;2024-02-23T08:00:16;99080.52;;;10.05;64.82
77013;BME280;67260;53.130;17.982;2024-02-23T08:02:57;99081.04;;;10.04;64.97
77013;BME280;67260;53.130;17.982;2024-02-23T08:05:25;99083.50;;;10.05;66.21
77013;BME280;67260;53.130;17.982;2024-02-23T08:07:51;99091.71;;;10.04;65.21
77013;BME280;67260;53.130;17.982;2024-02-23T08:10:21;99099.63;;;10.01;64.32
77013;BME280;67260;53.130;17.982;2024-02-23T08:12:53;99105.13;;;10.00;65.18
77013;BME280;67260;53.130;17.982;2024-02-23T08:16:07;99114.84;;;10.00;65.20
77013;BME280;67260;53.130;17.982;2024-02-23T08:18:59;99115.33;;;10.01;65.34
77013;BME280;67260;53.130;17.982;2024-02-23T08:22:07;99132.21;;;10.01;65.04
77013;BME280;67260;53.130;17.982;2024-02-23T08:24:51;99135.45;;;10.02;64.05
77013;BME280;67260;53.130;17.982;2024-02-23T08:27:34;99139.18;;;10.03;63.10
77013;BME280;67260;53.130;17.982;2024-02-23T08:30:04;99144.58;;;10.09;62.53
77013;BME280;67260;53.130;17.982;2024-02-23T08:32:33;99147.48;;;10.14;63.72
77013;BME280;67260;53.130;17.982;2024-02-23T08:35:00;99150.92;;;10.17;62.94
77013;BME280;67260;53.130;17.982;2024-02-23T08:37:28;99157.17;;;10.17;63.54
77013;BME280;67260;53.130;17.982;2024-02-23T08:39:58;99162.04;;;10.16;63.17
77013;BME280;67260;53.130;17.982;2024-02-23T08:42:53;99164.33;;;10.16;63.82
77013;BME280;67260;53.130;17.982;2024-02-23T08:45:23;99171.75;;;10.19;64.54
77013;BME280;67260;53.130;17.982;2024-02-23T08:47:49;99181.90;;;10.22;63.45
77013;BME280;67260;53.130;17.982;2024-02-23T08:50:16;99185.13;;;10.27;64.10
77013;BME280;67260;53.130;17.982;2024-02-23T08:52:42;99186.84;;;10.32;62.94
77013;BME280;67260;53.130;17.982;2024-02-23T08:55:10;99198.30;;;10.39;63.70
77013;BME280;67260;53.130;17.982;2024-02-23T08:57:45;99193.98;;;10.50;63.29
77013;BME280;67260;53.130;17.982;2024-02-23T09:00:12;99193.05;;;10.62;62.60
77013;BME280;67260;53.130;17.982;2024-02-23T09:02:38;99190.07;;;10.73;63.41
77013;BME280;67260;53.130;17.982;2024-02-23T09:05:08;99193.35;;;10.88;63.54
77013;BME280;67260;53.130;17.982;2024-02-23T09:07:37;99198.20;;;11.01;62.48
77013;BME280;67260;53.130;17.982;2024-02-23T09:10:06;99196.86;;;11.14;62.56
77013;BME280;67260;53.130;17.982;2024-02-23T09:12:33;99199.95;;;11.32;61.80
77013;BME280;67260;53.130;17.982;2024-02-23T09:14:59;99202.64;;;11.46;60.95
77013;BME280;67260;53.130;17.982;2024-02-23T09:17:25;99206.01;;;11.58;61.07
77013;BME280;67260;53.130;17.982;2024-02-23T09:19:51;99211.63;;;11.72;61.18
77013;BME280;67260;53.130;17.982;2024-02-23T09:22:17;99216.92;;;11.82;60.93
77013;BME280;67260;53.130;17.982;2024-02-23T09:24:44;99218.33;;;11.89;60.33
77013;BME280;67260;53.130;17.982;2024-02-23T09:27:12;99222.61;;;11.92;59.32
77013;BME280;67260;53.130;17.982;2024-02-23T09:29:40;99229.48;;;11.87;60.01
77013;BME280;67260;53.130;17.982;2024-02-23T09:32:07;99233.27;;;11.82;59.18
77013;BME280;67260;53.130;17.982;2024-02-23T09:34:33;99243.14;;;11.76;59.62
77013;BME280;67260;53.130;17.982;2024-02-23T09:36:59;99247.24;;;11.74;57.85
77013;BME280;67260;53.130;17.982;2024-02-23T09:39:26;99251.06;;;11.68;57.91
77013;BME280;67260;53.130;17.982;2024-02-23T09:41:56;99255.65;;;11.65;57.82
77013;BME280;67260;53.130;17.982;2024-02-23T09:44:32;99256.02;;;11.65;59.17
77013;BME280;67260;53.130;17.982;2024-02-23T09:47:13;99272.00;;;11.66;57.29
77013;BME280;67260;53.130;17.982;2024-02-23T09:49:52;99284.56;;;11.66;56.69
77013;BME280;67260;53.130;17.982;2024-02-23T10:01:52;99327.02;;;11.58;55.54
77013;BME280;67260;53.130;17.982;2024-02-23T10:04:54;99336.30;;;11.64;55.66
77013;BME280;67260;53.130;17.982;2024-02-23T10:07:50;99343.15;;;11.79;55.49
77013;BME280;67260;53.130;17.982;2024-02-23T10:18:29;99362.80;;;12.55;54.53
77013;BME280;67260;53.130;17.982;2024-02-23T10:20:55;99363.86;;;12.86;53.90
77013;BME280;67260;53.130;17.982;2024-02-23T10:23:29;99362.80;;;13.15;54.20
77013;BME280;67260;53.130;17.982;2024-02-23T10:25:56;99368.15;;;13.31;53.45
77013;BME280;67260;53.130;17.982;2024-02-23T10:31:52;99381.11;;;13.38;51.57
77013;BME280;67260;53.130;17.982;2024-02-23T10:42:34;99392.34;;;12.82;50.94
77013;BME280;67260;53.130;17.982;2024-02-23T10:46:11;99400.70;;;12.70;51.22
77013;BME280;67260;53.130;17.982;2024-02-23T10:48:43;99402.84;;;12.76;50.13
77013;BME280;67260;53.130;17.982;2024-02-23T10:51:14;99406.34;;;12.87;49.61
77013;BME280;67260;53.130;17.982;2024-02-23T11:05:10;99411.53;;;13.00;48.73
77013;BME280;67260;53.130;17.982;2024-02-23T11:07:39;99414.80;;;13.20;48.12
77013;BME280;67260;53.130;17.982;2024-02-23T11:10:06;99412.20;;;13.44;49.18
77013;BME280;67260;53.130;17.982;2024-02-23T11:12:33;99415.98;;;13.66;47.70
77013;BME280;67260;53.130;17.982;2024-02-23T11:15:00;99422.28;;;13.78;48.57
77013;BME280;67260;53.130;17.982;2024-02-23T11:17:30;99425.90;;;13.93;47.77
77013;BME280;67260;53.130;17.982;2024-02-23T11:19:56;99428.74;;;13.96;46.77
77013;BME280;67260;53.130;17.982;2024-02-23T11:22:35;99433.61;;;13.99;47.64
77013;BME280;67260;53.130;17.982;2024-02-23T11:25:09;99438.85;;;14.02;47.34
77013;BME280;67260;53.130;17.982;2024-02-23T11:28:09;99430.27;;;13.95;45.88
77013;BME280;67260;53.130;17.982;2024-02-23T11:30:46;99432.75;;;13.75;44.83
77013;BME280;67260;53.130;17.982;2024-02-23T11:33:14;99432.99;;;13.71;46.21
77013;BME280;67260;53.130;17.982;2024-02-23T11:35:46;99436.56;;;13.90;46.13
77013;BME280;67260;53.130;17.982;2024-02-23T11:38:15;99436.22;;;14.09;46.32
77013;BME280;67260;53.130;17.982;2024-02-23T11:40:42;99433.28;;;14.23;46.91
77013;BME280;67260;53.130;17.982;2024-02-23T11:43:10;99443.56;;;14.29;46.66
77013;BME280;67260;53.130;17.982;2024-02-23T11:45:36;99446.60;;;14.14;45.20
77013;BME280;67260;53.130;17.982;2024-02-23T11:48:02;99452.42;;;13.92;45.05
77013;BME280;67260;53.130;17.982;2024-02-23T11:50:28;99450.98;;;13.74;45.29
77013;BME280;67260;53.130;17.982;2024-02-23T11:52:54;99455.45;;;13.50;44.94
77013;BME280;67260;53.130;17.982;2024-02-23T11:55:21;99456.15;;;13.43;45.40
77013;BME280;67260;53.130;17.982;2024-02-23T11:57:50;99458.40;;;13.36;44.59
77013;BME280;67260;53.130;17.982;2024-02-23T12:00:18;99463.34;;;13.27;45.32
77013;BME280;67260;53.130;17.982;2024-02-23T12:02:44;99456.41;;;13.35;45.02
77013;BME280;67260;53.130;17.982;2024-02-23T12:05:16;99466.51;;;13.44;45.63
77013;BME280;67260;53.130;17.982;2024-02-23T12:07:42;99472.61;;;13.45;45.40
77013;BME280;67260;53.130;17.982;2024-02-23T12:10:09;99463.16;;;13.37;46.25
77013;BME280;67260;53.130;17.982;2024-02-23T12:12:37;99464.57;;;13.40;46.29
77013;BME280;67260;53.130;17.982;2024-02-23T12:15:04;99468.04;;;13.50;46.84
77013;BME280;67260;53.130;17.982;2024-02-23T12:17:30;99471.80;;;13.55;46.31
77013;BME280;67260;53.130;17.982;2024-02-23T12:20:08;99472.36;;;13.49;46.60
77013;BME280;67260;53.130;17.982;2024-02-23T12:22:34;99468.60;;;13.38;47.09
77013;BME280;67260;53.130;17.982;2024-02-23T12:25:03;99477.48;;;13.22;47.53
77013;BME280;67260;53.130;17.982;2024-02-23T12:27:29;99475.86;;;13.16;47.57
77013;BME280;67260;53.130;17.982;2024-02-23T12:29:56;99481.48;;;13.21;47.33
77013;BME280;67260;53.130;17.982;2024-02-23T12:33:05;99484.05;;;13.23;46.79
77013;BME280;67260;53.130;17.982;2024-02-23T12:36:08;99486.76;;;13.05;47.49
77013;BME280;67260;53.130;17.982;2024-02-23T12:38:41;99493.95;;;12.89;47.99
77013;BME280;67260;53.130;17.982;2024-02-23T12:41:09;99489.61;;;12.82;48.60
77013;BME280;67260;53.130;17.982;2024-02-23T12:43:35;99496.20;;;12.80;48.56
77013;BME280;67260;53.130;17.982;2024-02-23T12:46:03;99500.98;;;12.67;48.29
77013;BME280;67260;53.130;17.982;2024-02-23T12:48:29;99506.84;;;12.54;48.27
77013;BME280;67260;53.130;17.982;2024-02-23T12:50:55;99514.23;;;12.44;48.74
77013;BME280;67260;53.130;17.982;2024-02-23T12:53:43;99518.10;;;12.31;48.30
77013;BME280;67260;53.130;17.982;2024-02-23T12:56:52;99529.39;;;12.07;46.85
77013;BME280;67260;53.130;17.982;2024-02-23T12:59:19;99536.46;;;11.95;48.38
77013;BME280;67260;53.130;17.982;2024-02-23T13:02:01;99548.80;;;11.94;48.46
77013;BME280;67260;53.130;17.982;2024-02-23T13:05:08;99562.61;;;11.85;48.59
77013;BME280;67260;53.130;17.982;2024-02-23T13:11:50;99576.38;;;11.72;48.13
77013;BME280;67260;53.130;17.982;2024-02-23T13:14:20;99584.35;;;11.65;47.24
77013;BME280;67260;53.130;17.982;2024-02-23T13:16:55;99588.90;;;11.51;47.37
77013;BME280;67260;53.130;17.982;2024-02-23T13:19:21;99597.66;;;11.44;47.69
77013;BME280;67260;53.130;17.982;2024-02-23T13:21:47;99601.98;;;11.39;48.13
77013;BME280;67260;53.130;17.982;2024-02-23T13:24:13;99606.56;;;11.40;48.39
77013;BME280;67260;53.130;17.982;2024-02-23T13:26:39;99609.60;;;11.38;48.35
77013;BME280;67260;53.130;17.982;2024-02-23T13:29:06;99614.43;;;11.29;48.29
77013;BME280;67260;53.130;17.982;2024-02-23T13:31:32;99612.65;;;11.13;48.25
77013;BME280;67260;53.130;17.982;2024-02-23T13:33:58;99614.65;;;11.01;48.74
77013;BME280;67260;53.130;17.982;2024-02-23T13:36:24;99619.17;;;10.90;48.79
77013;BME280;67260;53.130;17.982;2024-02-23T13:38:54;99621.71;;;10.82;48.81
77013;BME280;67260;53.130;17.982;2024-02-23T13:41:22;99621.36;;;10.75;49.06
77013;BME280;67260;53.130;17.982;2024-02-23T13:43:48;99620.40;;;10.69;49.17
77013;BME280;67260;53.130;17.982;2024-02-23T13:46:46;99622.30;;;10.64;49.16
77013;BME280;67260;53.130;17.982;2024-02-23T13:49:37;99621.00;;;10.53;49.03
77013;BME280;67260;53.130;17.982;2024-02-23T13:52:03;99618.10;;;10.51;49.55
77013;BME280;67260;53.130;17.982;2024-02-23T13:57:18;99630.92;;;10.55;49.90
77013;BME280;67260;53.130;17.982;2024-02-23T13:59:44;99630.12;;;10.57;50.08
77013;BME280;67260;53.130;17.982;2024-02-23T14:02:12;99617.92;;;10.56;50.01
77013;BME280;67260;53.130;17.982;2024-02-23T14:04:38;99616.48;;;10.55;50.19
77013;BME280;67260;53.130;17.982;2024-02-23T14:07:05;99608.23;;;10.52;50.28
77013;BME280;67260;53.130;17.982;2024-02-23T14:09:31;99607.19;;;10.60;50.31
77013;BME280;67260;53.130;17.982;2024-02-23T14:11:57;99604.11;;;10.73;50.33
77013;BME280;67260;53.130;17.982;2024-02-23T14:14:23;99605.98;;;10.85;50.12
77013;BME280;67260;53.130;17.982;2024-02-23T14:16:50;99602.02;;;10.94;50.07
77013;BME280;67260;53.130;17.982;2024-02-23T14:19:16;99607.78;;;10.98;50.07
77013;BME280;67260;53.130;17.982;2024-02-23T14:21:42;99605.73;;;10.92;49.78
77013;BME280;67260;53.130;17.982;2024-02-23T14:24:08;99606.71;;;10.84;50.00
77013;BME280;67260;53.130;17.982;2024-02-23T14:26:34;99607.02;;;10.70;50.27
77013;BME280;67260;53.130;17.982;2024-02-23T14:29:00;99601.89;;;10.59;50.64
77013;BME280;67260;53.130;17.982;2024-02-23T14:31:27;99600.36;;;10.51;50.83
77013;BME280;67260;53.130;17.982;2024-02-23T14:33:53;99606.81;;;10.47;51.03
77013;BME280;67260;53.130;17.982;2024-02-23T14:36:19;99606.15;;;10.43;50.69
77013;BME280;67260;53.130;17.982;2024-02-23T14:38:46;99609.74;;;10.40;50.58
77013;BME280;67260;53.130;17.982;2024-02-23T14:41:12;99611.64;;;10.33;50.87
77013;BME280;67260;53.130;17.982;2024-02-23T14:43:38;99618.14;;;10.26;51.19
77013;BME280;67260;53.130;17.982;2024-02-23T14:46:04;99623.57;;;10.18;51.17
77013;BME280;67260;53.130;17.982;2024-02-23T14:48:31;99622.75;;;10.12;51.54
77013;BME280;67260;53.130;17.982;2024-02-23T14:51:03;99631.40;;;10.08;51.73
77013;BME280;67260;53.130;17.982;2024-02-23T14:53:30;99639.04;;;10.03;51.86
77013;BME280;67260;53.130;17.982;2024-02-23T14:56:41;99641.91;;;9.97;52.07
77013;BME280;67260;53.130;17.982;2024-02-23T15:17:04;99672.34;;;9.42;53.99
77013;BME280;67260;53.130;17.982;2024-02-23T15:23:20;99670.79;;;9.23;54.42
77013;BME280;67260;53.130;17.982;2024-02-23T15:30:32;99678.31;;;9.07;55.12
77013;BME280;67260;53.130;17.982;2024-02-23T15:58:21;99688.24;;;8.75;56.44
77013;BME280;67260;53.130;17.982;2024-02-23T16:01:22;99690.03;;;8.73;56.75
77013;BME280;67260;53.130;17.982;2024-02-23T16:03:51;99695.39;;;8.70;56.80
77013;BME280;67260;53.130;17.982;2024-02-23T16:06:17;99699.08;;;8.68;56.89
77013;BME280;67260;53.130;17.982;2024-02-23T16:08:58;99704.73;;;8.65;57.08
77013;BME280;67260;53.130;17.982;2024-02-23T16:11:59;99710.21;;;8.63;57.24
77013;BME280;67260;53.130;17.982;2024-02-23T16:15:39;99713.18;;;8.58;57.51
77013;BME280;67260;53.130;17.982;2024-02-23T16:22:36;99726.90;;;8.49;57.89
77013;BME280;67260;53.130;17.982;2024-02-23T16:25:18;99732.41;;;8.48;58.11
77013;BME280;67260;53.130;17.982;2024-02-23T16:31:39;99734.84;;;8.41;58.48
77013;BME280;67260;53.130;17.982;2024-02-23T16:55:53;99799.52;;;8.12;60.59
77013;BME280;67260;53.130;17.982;2024-02-23T16:59:14;99802.14;;;8.09;60.78
77013;BME280;67260;53.130;17.982;2024-02-23T17:17:31;99793.73;;;7.94;61.73
77013;BME280;67260;53.130;17.982;2024-02-23T17:20:31;99791.91;;;7.91;61.92
77013;BME280;67260;53.130;17.982;2024-02-23T17:26:34;99786.44;;;7.89;62.11
77013;BME280;67260;53.130;17.982;2024-02-23T17:29:05;99795.40;;;7.86;62.24
77013;BME280;67260;53.130;17.982;2024-02-23T17:31:40;99796.99;;;7.85;62.41
77013;BME280;67260;53.130;17.982;2024-02-23T17:35:25;99790.13;;;7.81;62.40
77013;BME280;67260;53.130;17.982;2024-02-23T17:58:42;99765.56;;;7.48;63.48
77013;BME280;67260;53.130;17.982;2024-02-23T18:01:15;99769.22;;;7.48;63.60
77013;BME280;67260;53.130;17.982;2024-02-23T18:06:40;99781.74;;;7.47;63.86
77013;BME280;67260;53.130;17.982;2024-02-23T18:16:01;99807.48;;;7.47;64.35
77013;BME280;67260;53.130;17.982;2024-02-23T20:00:44;99814.14;;;7.13;67.52
77013;BME280;67260;53.130;17.982;2024-02-23T20:03:57;99811.98;;;7.13;67.41
77013;BME280;67260;53.130;17.982;2024-02-23T20:10:32;99820.77;;;7.12;67.58
77013;BME280;67260;53.130;17.982;2024-02-23T20:18:05;99833.48;;;7.12;67.55
77013;BME280;67260;53.130;17.982;2024-02-23T20:21:43;99836.69;;;7.11;67.68
77013;BME280;67260;53.130;17.982;2024-02-23T20:30:59;99840.11;;;7.11;67.84
77013;BME280;67260;53.130;17.982;2024-02-23T20:38:02;99836.25;;;7.11;67.99
77013;BME280;67260;53.130;17.982;2024-02-23T20:43:29;99830.42;;;7.13;68.01
77013;BME280;67260;53.130;17.982;2024-02-23T20:50:02;99825.89;;;7.17;67.91
77013;BME280;67260;53.130;17.982;2024-02-23T20:52:32;99825.20;;;7.17;68.06
77013;BME280;67260;53.130;17.982;2024-02-23T20:57:58;99825.39;;;7.17;68.05
77013;BME280;67260;53.130;17.982;2024-02-23T21:00:28;99831.41;;;7.17;68.13
77013;BME280;67260;53.130;17.982;2024-02-23T21:02:55;99838.96;;;7.16;68.04
77013;BME280;67260;53.130;17.982;2024-02-23T21:05:21;99844.09;;;7.18;68.00
77013;BME280;67260;53.130;17.982;2024-02-23T21:07:51;99844.98;;;7.19;67.98
77013;BME280;67260;53.130;17.982;2024-02-23T21:10:19;99848.46;;;7.21;67.96
77013;BME280;67260;53.130;17.982;2024-02-23T21:13:12;99840.83;;;7.23;68.10
77013;BME280;67260;53.130;17.982;2024-02-23T21:15:52;99833.14;;;7.22;67.97
77013;BME280;67260;53.130;17.982;2024-02-23T21:18:29;99833.02;;;7.24;68.12